Winslow Lindbergh Regional Airport
KINW : now visible

Airfield :











YOU CAN JOIN US ON...

 
LOGIN :

Register | Disclaimer

   EN    FR    IT 

 









Legend :    VFR   Marginal VFR   IFR   Intensive IFR   Very Intensive IFR
Visi :
Ceiling :
>= 8 km
>= 3000ft
5 to 8 km
1000 to 3000 ft
1500m to 5 km
500 to 1000 ft
800 to 1500m
200 to 500 ft
< 800m
< 200 ft
Symbols :   Thunderstorms  Fog  Heavy snow  Heavy precipitations  Wind > 20 kt







- Airport Elevation : 4941 ft


KINW - Winslow Lindbergh Regional

CURRENT METAR :
  • 181856Z AUTO 24009G18KT 10SM CLR 35/06 A3011 RMK AO2 SLP103 T03500056

EXPIRED METARs :
  • 181756Z AUTO 01006KT 10SM CLR 34/09 A3014 RMK AO2 SLP112 T03390094 10339 20172 58012
  • 181656Z AUTO 10SM CLR 32/10 A3016 RMK AO2 SLP121 T03170100

TAF KINW
Valid from the 18 at 18:00 until the 19 at 18:00 UTC


181725Z 1818/1918 VRB05KT P6SM SCT250
FM181900 28010G20KT P6SM FEW120
FM190200 24010KT P6SM FEW120
FM190500 VRB05KT P6SM SKC
KZAB FIR / North America



MET'MAP, your aeronautical weather chart ! - Copyright ORBIFLY December 2007 - Disclaimer

ORBIFLY MET'MAP TEAM :

Programming & Development : Alexandra Zaïnal
Concept & Development : Baudouin d'Aumeries
Co-Development & Prog : Marc-Olivier Méhu
Technical & hardware support : Manuel Goepfert

Contact : metmap@orbifly.com




SOURCES & CREDITS :

   NOAA       Earth
Advisory